sensor_id;sensor_type;location;lat;lon;timestamp;pressure;altitude;pressure_sealevel;temperature;humidity
51530;BME280;37613;51.788;21.582;2024-03-06T00:00:56;100289.30;;;5.02;100.00
51530;BME280;37613;51.788;21.582;2024-03-06T00:05:19;100287.38;;;5.04;100.00
51530;BME280;37613;51.788;21.582;2024-03-06T00:09:21;100286.00;;;5.06;100.00
51530;BME280;37613;51.788;21.582;2024-03-06T00:13:23;100289.00;;;5.06;100.00
51530;BME280;37613;51.788;21.582;2024-03-06T00:17:26;100286.05;;;5.08;100.00
51530;BME280;37613;51.788;21.582;2024-03-06T00:21:29;100289.55;;;5.10;100.00
51530;BME280;37613;51.788;21.582;2024-03-06T00:25:31;100294.35;;;5.11;100.00
51530;BME280;37613;51.788;21.582;2024-03-06T00:29:34;100293.42;;;5.11;100.00
51530;BME280;37613;51.788;21.582;2024-03-06T00:33:38;100292.41;;;5.12;100.00
51530;BME280;37613;51.788;21.582;2024-03-06T00:37:41;100297.44;;;5.12;100.00
51530;BME280;37613;51.788;21.582;2024-03-06T00:41:43;100295.95;;;5.13;100.00
51530;BME280;37613;51.788;21.582;2024-03-06T00:45:45;100299.33;;;5.13;100.00
51530;BME280;37613;51.788;21.582;2024-03-06T00:49:47;100306.23;;;5.13;100.00
51530;BME280;37613;51.788;21.582;2024-03-06T00:53:50;100311.10;;;5.13;100.00
51530;BME280;37613;51.788;21.582;2024-03-06T00:57:52;100305.43;;;5.13;100.00
51530;BME280;37613;51.788;21.582;2024-03-06T01:01:54;100306.50;;;5.11;100.00
51530;BME280;37613;51.788;21.582;2024-03-06T01:05:59;100307.23;;;5.09;100.00
51530;BME280;37613;51.788;21.582;2024-03-06T01:10:01;100310.45;;;5.06;100.00
51530;BME280;37613;51.788;21.582;2024-03-06T01:14:04;100312.64;;;5.02;100.00
51530;BME280;37613;51.788;21.582;2024-03-06T01:18:06;100315.22;;;4.99;100.00
51530;BME280;37613;51.788;21.582;2024-03-06T01:22:09;100316.70;;;4.95;100.00
51530;BME280;37613;51.788;21.582;2024-03-06T01:26:11;100317.60;;;4.93;100.00
51530;BME280;37613;51.788;21.582;2024-03-06T01:30:14;100317.49;;;4.92;100.00
51530;BME280;37613;51.788;21.582;2024-03-06T01:34:16;100315.59;;;4.91;100.00
51530;BME280;37613;51.788;21.582;2024-03-06T01:38:18;100311.98;;;4.91;100.00
51530;BME280;37613;51.788;21.582;2024-03-06T01:42:19;100311.84;;;4.91;100.00
51530;BME280;37613;51.788;21.582;2024-03-06T01:46:22;100310.86;;;4.93;100.00
51530;BME280;37613;51.788;21.582;2024-03-06T01:50:24;100313.66;;;4.96;100.00
51530;BME280;37613;51.788;21.582;2024-03-06T01:54:26;100320.86;;;4.99;100.00
51530;BME280;37613;51.788;21.582;2024-03-06T01:58:29;100324.67;;;5.00;100.00
51530;BME280;37613;51.788;21.582;2024-03-06T02:02:32;100328.64;;;5.03;100.00
51530;BME280;37613;51.788;21.582;2024-03-06T02:06:34;100329.95;;;5.05;100.00
51530;BME280;37613;51.788;21.582;2024-03-06T02:10:36;100330.93;;;5.07;100.00
51530;BME280;37613;51.788;21.582;2024-03-06T02:14:38;100335.34;;;5.08;100.00
51530;BME280;37613;51.788;21.582;2024-03-06T02:18:51;100337.54;;;5.08;100.00
51530;BME280;37613;51.788;21.582;2024-03-06T02:22:54;100337.56;;;5.09;100.00
51530;BME280;37613;51.788;21.582;2024-03-06T02:26:56;100337.48;;;5.09;100.00
51530;BME280;37613;51.788;21.582;2024-03-06T02:30:58;100341.98;;;5.10;100.00
51530;BME280;37613;51.788;21.582;2024-03-06T02:35:02;100340.80;;;5.11;100.00
51530;BME280;37613;51.788;21.582;2024-03-06T02:39:05;100340.96;;;5.11;100.00
51530;BME280;37613;51.788;21.582;2024-03-06T02:43:10;100339.87;;;5.11;100.00
51530;BME280;37613;51.788;21.582;2024-03-06T02:47:13;100340.64;;;5.10;100.00
51530;BME280;37613;51.788;21.582;2024-03-06T02:51:18;100345.47;;;5.09;100.00
51530;BME280;37613;51.788;21.582;2024-03-06T02:55:22;100345.27;;;5.07;100.00
51530;BME280;37613;51.788;21.582;2024-03-06T02:59:24;100342.71;;;5.06;100.00
51530;BME280;37613;51.788;21.582;2024-03-06T03:03:27;100342.06;;;5.04;100.00
51530;BME280;37613;51.788;21.582;2024-03-06T03:07:32;100346.52;;;5.03;100.00
51530;BME280;37613;51.788;21.582;2024-03-06T03:11:34;100350.65;;;5.03;100.00
51530;BME280;37613;51.788;21.582;2024-03-06T03:15:37;100352.17;;;5.01;100.00
51530;BME280;37613;51.788;21.582;2024-03-06T03:19:40;100354.89;;;4.99;100.00
51530;BME280;37613;51.788;21.582;2024-03-06T03:23:42;100360.45;;;4.99;100.00
51530;BME280;37613;51.788;21.582;2024-03-06T03:27:44;100360.88;;;4.98;100.00
51530;BME280;37613;51.788;21.582;2024-03-06T03:31:47;100362.70;;;4.96;100.00
51530;BME280;37613;51.788;21.582;2024-03-06T03:35:49;100360.64;;;4.95;100.00
51530;BME280;37613;51.788;21.582;2024-03-06T03:39:51;100364.11;;;4.92;100.00
51530;BME280;37613;51.788;21.582;2024-03-06T03:43:56;100369.73;;;4.91;100.00
51530;BME280;37613;51.788;21.582;2024-03-06T03:47:58;100369.98;;;4.89;100.00
51530;BME280;37613;51.788;21.582;2024-03-06T03:52:00;100371.33;;;4.87;100.00
51530;BME280;37613;51.788;21.582;2024-03-06T03:56:02;100373.23;;;4.85;100.00
51530;BME280;37613;51.788;21.582;2024-03-06T04:00:05;100375.45;;;4.83;100.00
51530;BME280;37613;51.788;21.582;2024-03-06T04:04:13;100378.73;;;4.79;100.00
51530;BME280;37613;51.788;21.582;2024-03-06T04:08:15;100379.23;;;4.78;100.00
51530;BME280;37613;51.788;21.582;2024-03-06T04:12:17;100379.19;;;4.73;100.00
51530;BME280;37613;51.788;21.582;2024-03-06T04:16:19;100381.15;;;4.67;100.00
51530;BME280;37613;51.788;21.582;2024-03-06T04:20:21;100384.83;;;4.61;100.00
51530;BME280;37613;51.788;21.582;2024-03-06T04:24:24;100383.66;;;4.56;100.00
51530;BME280;37613;51.788;21.582;2024-03-06T04:28:26;100391.66;;;4.50;100.00
51530;BME280;37613;51.788;21.582;2024-03-06T04:32:28;100393.21;;;4.46;100.00
51530;BME280;37613;51.788;21.582;2024-03-06T04:36:30;100390.44;;;4.43;100.00
51530;BME280;37613;51.788;21.582;2024-03-06T04:40:32;100392.42;;;4.41;100.00
51530;BME280;37613;51.788;21.582;2024-03-06T04:44:36;100394.02;;;4.39;100.00
51530;BME280;37613;51.788;21.582;2024-03-06T04:48:41;100395.70;;;4.37;100.00
51530;BME280;37613;51.788;21.582;2024-03-06T04:52:44;100402.08;;;4.36;100.00
51530;BME280;37613;51.788;21.582;2024-03-06T04:56:49;100402.55;;;4.34;100.00
51530;BME280;37613;51.788;21.582;2024-03-06T05:00:51;100403.88;;;4.30;100.00
51530;BME280;37613;51.788;21.582;2024-03-06T05:04:53;100409.73;;;4.27;100.00
51530;BME280;37613;51.788;21.582;2024-03-06T05:08:55;100413.09;;;4.24;100.00
51530;BME280;37613;51.788;21.582;2024-03-06T05:12:57;100416.46;;;4.22;100.00
51530;BME280;37613;51.788;21.582;2024-03-06T05:16:59;100418.80;;;4.21;100.00
51530;BME280;37613;51.788;21.582;2024-03-06T05:21:01;100421.45;;;4.21;100.00
51530;BME280;37613;51.788;21.582;2024-03-06T05:25:04;100427.65;;;4.19;100.00
51530;BME280;37613;51.788;21.582;2024-03-06T05:29:07;100433.90;;;4.21;100.00
51530;BME280;37613;51.788;21.582;2024-03-06T05:33:09;100439.83;;;4.18;100.00
51530;BME280;37613;51.788;21.582;2024-03-06T05:37:12;100444.26;;;4.14;100.00
51530;BME280;37613;51.788;21.582;2024-03-06T05:41:14;100449.29;;;4.10;100.00
51530;BME280;37613;51.788;21.582;2024-03-06T05:45:17;100450.39;;;4.07;100.00
51530;BME280;37613;51.788;21.582;2024-03-06T05:49:19;100451.92;;;4.09;100.00
51530;BME280;37613;51.788;21.582;2024-03-06T05:53:21;100454.48;;;4.08;100.00
51530;BME280;37613;51.788;21.582;2024-03-06T05:57:24;100451.84;;;4.05;100.00
51530;BME280;37613;51.788;21.582;2024-03-06T06:01:26;100453.75;;;4.04;100.00
51530;BME280;37613;51.788;21.582;2024-03-06T06:05:28;100455.95;;;4.03;100.00
51530;BME280;37613;51.788;21.582;2024-03-06T06:09:31;100459.20;;;4.01;100.00
51530;BME280;37613;51.788;21.582;2024-03-06T06:13:33;100464.77;;;3.98;100.00
51530;BME280;37613;51.788;21.582;2024-03-06T06:17:36;100470.41;;;3.94;100.00
51530;BME280;37613;51.788;21.582;2024-03-06T06:21:39;100474.83;;;3.90;100.00
51530;BME280;37613;51.788;21.582;2024-03-06T06:25:41;100479.41;;;3.89;100.00
51530;BME280;37613;51.788;21.582;2024-03-06T06:29:43;100486.92;;;3.87;100.00
51530;BME280;37613;51.788;21.582;2024-03-06T06:33:45;100486.31;;;3.88;100.00
51530;BME280;37613;51.788;21.582;2024-03-06T06:37:49;100487.50;;;3.88;100.00
51530;BME280;37613;51.788;21.582;2024-03-06T06:41:51;100493.77;;;3.89;100.00
51530;BME280;37613;51.788;21.582;2024-03-06T06:45:53;100499.72;;;3.88;100.00
51530;BME280;37613;51.788;21.582;2024-03-06T06:49:55;100502.70;;;3.86;100.00
51530;BME280;37613;51.788;21.582;2024-03-06T06:53:57;100504.94;;;3.85;100.00
51530;BME280;37613;51.788;21.582;2024-03-06T06:57:59;100510.25;;;3.85;100.00
51530;BME280;37613;51.788;21.582;2024-03-06T07:02:03;100508.22;;;3.85;100.00
51530;BME280;37613;51.788;21.582;2024-03-06T07:06:05;100510.98;;;3.86;100.00
51530;BME280;37613;51.788;21.582;2024-03-06T07:10:08;100515.67;;;3.86;100.00
51530;BME280;37613;51.788;21.582;2024-03-06T07:14:12;100516.60;;;3.86;100.00
51530;BME280;37613;51.788;21.582;2024-03-06T07:18:14;100521.24;;;3.87;100.00
51530;BME280;37613;51.788;21.582;2024-03-06T07:22:17;100523.81;;;3.86;100.00
51530;BME280;37613;51.788;21.582;2024-03-06T07:26:19;100526.58;;;3.87;100.00
51530;BME280;37613;51.788;21.582;2024-03-06T07:30:22;100532.30;;;3.88;100.00
51530;BME280;37613;51.788;21.582;2024-03-06T07:34:24;100536.68;;;3.88;100.00
51530;BME280;37613;51.788;21.582;2024-03-06T07:38:26;100537.40;;;3.86;100.00
51530;BME280;37613;51.788;21.582;2024-03-06T07:42:30;100545.25;;;3.84;100.00
51530;BME280;37613;51.788;21.582;2024-03-06T07:46:32;100547.83;;;3.84;100.00
51530;BME280;37613;51.788;21.582;2024-03-06T07:50:34;100550.81;;;3.84;100.00
51530;BME280;37613;51.788;21.582;2024-03-06T07:54:36;100551.91;;;3.84;100.00
51530;BME280;37613;51.788;21.582;2024-03-06T07:58:40;100556.92;;;3.82;100.00
51530;BME280;37613;51.788;21.582;2024-03-06T08:02:41;100561.49;;;3.76;100.00
51530;BME280;37613;51.788;21.582;2024-03-06T08:06:47;100567.27;;;3.71;100.00
51530;BME280;37613;51.788;21.582;2024-03-06T08:10:48;100566.23;;;3.68;100.00
51530;BME280;37613;51.788;21.582;2024-03-06T08:15:06;100568.78;;;3.67;100.00
51530;BME280;37613;51.788;21.582;2024-03-06T08:19:10;100565.41;;;3.62;100.00
51530;BME280;37613;51.788;21.582;2024-03-06T08:23:11;100571.86;;;3.58;100.00
51530;BME280;37613;51.788;21.582;2024-03-06T08:27:12;100576.33;;;3.57;100.00
51530;BME280;37613;51.788;21.582;2024-03-06T08:31:13;100575.22;;;3.54;100.00
51530;BME280;37613;51.788;21.582;2024-03-06T08:35:14;100577.30;;;3.53;100.00
51530;BME280;37613;51.788;21.582;2024-03-06T08:39:16;100583.98;;;3.52;100.00
51530;BME280;37613;51.788;21.582;2024-03-06T08:43:17;100584.79;;;3.50;100.00
51530;BME280;37613;51.788;21.582;2024-03-06T08:47:20;100588.04;;;3.50;100.00
51530;BME280;37613;51.788;21.582;2024-03-06T08:51:21;100592.84;;;3.49;100.00
51530;BME280;37613;51.788;21.582;2024-03-06T08:55:38;100592.16;;;3.53;100.00
51530;BME280;37613;51.788;21.582;2024-03-06T08:59:39;100596.06;;;3.53;100.00
51530;BME280;37613;51.788;21.582;2024-03-06T09:06:03;100597.65;;;3.63;100.00
51530;BME280;37613;51.788;21.582;2024-03-06T09:10:05;100602.69;;;3.61;100.00
51530;BME280;37613;51.788;21.582;2024-03-06T09:14:08;100604.13;;;3.60;100.00
51530;BME280;37613;51.788;21.582;2024-03-06T09:18:12;100606.30;;;3.60;100.00
51530;BME280;37613;51.788;21.582;2024-03-06T09:22:13;100606.81;;;3.59;100.00
51530;BME280;37613;51.788;21.582;2024-03-06T09:26:14;100607.82;;;3.61;100.00
51530;BME280;37613;51.788;21.582;2024-03-06T09:30:15;100608.98;;;3.63;100.00
51530;BME280;37613;51.788;21.582;2024-03-06T09:34:16;100607.39;;;3.70;100.00
51530;BME280;37613;51.788;21.582;2024-03-06T09:38:17;100613.16;;;3.75;100.00
51530;BME280;37613;51.788;21.582;2024-03-06T09:42:18;100614.95;;;3.75;100.00
51530;BME280;37613;51.788;21.582;2024-03-06T09:46:19;100619.05;;;3.72;100.00
51530;BME280;37613;51.788;21.582;2024-03-06T09:50:23;100622.27;;;3.70;100.00
51530;BME280;37613;51.788;21.582;2024-03-06T09:54:28;100627.65;;;3.67;100.00
51530;BME280;37613;51.788;21.582;2024-03-06T09:58:30;100630.94;;;3.62;100.00
51530;BME280;37613;51.788;21.582;2024-03-06T10:02:37;100636.07;;;3.61;100.00
51530;BME280;37613;51.788;21.582;2024-03-06T10:06:39;100636.73;;;3.63;100.00
51530;BME280;37613;51.788;21.582;2024-03-06T10:10:41;100648.55;;;3.61;100.00
51530;BME280;37613;51.788;21.582;2024-03-06T10:14:51;100653.10;;;3.55;100.00
51530;BME280;37613;51.788;21.582;2024-03-06T10:18:54;100656.03;;;3.52;100.00
51530;BME280;37613;51.788;21.582;2024-03-06T10:22:55;100656.63;;;3.49;100.00
51530;BME280;37613;51.788;21.582;2024-03-06T10:26:58;100658.35;;;3.46;100.00
51530;BME280;37613;51.788;21.582;2024-03-06T10:31:04;100661.40;;;3.42;100.00
51530;BME280;37613;51.788;21.582;2024-03-06T10:35:42;100663.17;;;3.39;100.00
51530;BME280;37613;51.788;21.582;2024-03-06T10:39:44;100668.73;;;3.37;100.00
51530;BME280;37613;51.788;21.582;2024-03-06T10:43:47;100671.10;;;3.35;100.00
51530;BME280;37613;51.788;21.582;2024-03-06T10:47:51;100677.50;;;3.33;100.00
51530;BME280;37613;51.788;21.582;2024-03-06T10:51:55;100682.85;;;3.32;100.00
51530;BME280;37613;51.788;21.582;2024-03-06T10:55:58;100683.67;;;3.29;100.00
51530;BME280;37613;51.788;21.582;2024-03-06T10:59:59;100686.95;;;3.25;100.00
51530;BME280;37613;51.788;21.582;2024-03-06T11:04:01;100685.11;;;3.21;100.00
51530;BME280;37613;51.788;21.582;2024-03-06T11:08:04;100683.50;;;3.18;100.00
51530;BME280;37613;51.788;21.582;2024-03-06T11:12:06;100685.87;;;3.10;100.00
51530;BME280;37613;51.788;21.582;2024-03-06T11:16:07;100684.33;;;3.06;100.00
51530;BME280;37613;51.788;21.582;2024-03-06T11:20:13;100690.86;;;3.06;100.00
51530;BME280;37613;51.788;21.582;2024-03-06T11:24:19;100688.68;;;3.08;100.00
51530;BME280;37613;51.788;21.582;2024-03-06T11:28:28;100688.93;;;3.09;100.00
51530;BME280;37613;51.788;21.582;2024-03-06T11:32:30;100685.92;;;3.10;100.00
51530;BME280;37613;51.788;21.582;2024-03-06T11:36:35;100684.67;;;3.12;100.00
51530;BME280;37613;51.788;21.582;2024-03-06T11:40:44;100689.67;;;3.14;100.00
51530;BME280;37613;51.788;21.582;2024-03-06T11:44:54;100689.71;;;3.17;100.00
51530;BME280;37613;51.788;21.582;2024-03-06T11:48:56;100687.12;;;3.21;100.00
51530;BME280;37613;51.788;21.582;2024-03-06T11:52:57;100688.48;;;3.26;100.00
51530;BME280;37613;51.788;21.582;2024-03-06T11:57:00;100691.11;;;3.26;100.00
51530;BME280;37613;51.788;21.582;2024-03-06T12:01:01;100696.19;;;3.23;100.00
51530;BME280;37613;51.788;21.582;2024-03-06T12:05:02;100697.04;;;3.20;100.00
51530;BME280;37613;51.788;21.582;2024-03-06T12:09:21;100698.36;;;3.21;100.00
51530;BME280;37613;51.788;21.582;2024-03-06T12:13:22;100698.60;;;3.21;100.00
51530;BME280;37613;51.788;21.582;2024-03-06T12:17:23;100697.42;;;3.27;100.00
51530;BME280;37613;51.788;21.582;2024-03-06T12:21:40;100698.88;;;3.32;100.00
51530;BME280;37613;51.788;21.582;2024-03-06T12:25:41;100698.21;;;3.31;100.00
51530;BME280;37613;51.788;21.582;2024-03-06T12:29:42;100699.04;;;3.33;100.00
51530;BME280;37613;51.788;21.582;2024-03-06T12:33:43;100704.14;;;3.33;100.00
51530;BME280;37613;51.788;21.582;2024-03-06T12:37:44;100704.07;;;3.31;100.00
51530;BME280;37613;51.788;21.582;2024-03-06T12:41:45;100703.52;;;3.29;100.00
51530;BME280;37613;51.788;21.582;2024-03-06T12:45:46;100707.88;;;3.27;100.00
51530;BME280;37613;51.788;21.582;2024-03-06T12:49:47;100702.70;;;3.26;100.00
51530;BME280;37613;51.788;21.582;2024-03-06T12:53:48;100708.89;;;3.24;100.00
51530;BME280;37613;51.788;21.582;2024-03-06T12:57:49;100715.20;;;3.24;100.00
51530;BME280;37613;51.788;21.582;2024-03-06T13:01:51;100712.89;;;3.23;100.00
51530;BME280;37613;51.788;21.582;2024-03-06T13:05:52;100716.23;;;3.22;100.00
51530;BME280;37613;51.788;21.582;2024-03-06T13:09:53;100719.82;;;3.22;100.00
51530;BME280;37613;51.788;21.582;2024-03-06T13:22:02;100723.84;;;3.37;100.00
51530;BME280;37613;51.788;21.582;2024-03-06T13:26:03;100724.56;;;3.40;100.00
51530;BME280;37613;51.788;21.582;2024-03-06T13:30:04;100729.79;;;3.42;100.00
51530;BME280;37613;51.788;21.582;2024-03-06T13:34:08;100728.71;;;3.45;100.00
51530;BME280;37613;51.788;21.582;2024-03-06T13:38:09;100725.30;;;3.48;100.00
51530;BME280;37613;51.788;21.582;2024-03-06T13:42:10;100728.65;;;3.51;100.00
51530;BME280;37613;51.788;21.582;2024-03-06T13:46:11;100728.77;;;3.55;100.00
51530;BME280;37613;51.788;21.582;2024-03-06T13:50:14;100733.35;;;3.58;100.00
51530;BME280;37613;51.788;21.582;2024-03-06T13:54:16;100731.00;;;3.60;100.00
51530;BME280;37613;51.788;21.582;2024-03-06T13:58:17;100732.91;;;3.63;100.00
51530;BME280;37613;51.788;21.582;2024-03-06T14:02:18;100735.60;;;3.67;100.00
51530;BME280;37613;51.788;21.582;2024-03-06T14:06:19;100733.59;;;3.71;100.00
51530;BME280;37613;51.788;21.582;2024-03-06T14:10:19;100735.02;;;3.74;100.00
51530;BME280;37613;51.788;21.582;2024-03-06T14:14:22;100738.90;;;3.75;100.00
51530;BME280;37613;51.788;21.582;2024-03-06T14:18:23;100737.79;;;3.77;100.00
51530;BME280;37613;51.788;21.582;2024-03-06T14:22:24;100736.77;;;3.78;100.00
51530;BME280;37613;51.788;21.582;2024-03-06T14:26:25;100741.48;;;3.78;100.00
51530;BME280;37613;51.788;21.582;2024-03-06T14:30:28;100741.33;;;3.78;100.00
51530;BME280;37613;51.788;21.582;2024-03-06T14:34:29;100740.63;;;3.78;100.00
51530;BME280;37613;51.788;21.582;2024-03-06T14:38:30;100744.77;;;3.80;100.00
51530;BME280;37613;51.788;21.582;2024-03-06T14:42:47;100748.42;;;3.82;100.00
51530;BME280;37613;51.788;21.582;2024-03-06T14:46:48;100749.52;;;3.78;100.00
51530;BME280;37613;51.788;21.582;2024-03-06T14:50:49;100752.85;;;3.74;100.00
51530;BME280;37613;51.788;21.582;2024-03-06T14:54:50;100750.89;;;3.72;100.00
51530;BME280;37613;51.788;21.582;2024-03-06T14:58:51;100753.18;;;3.73;100.00
51530;BME280;37613;51.788;21.582;2024-03-06T15:02:52;100755.30;;;3.75;100.00
51530;BME280;37613;51.788;21.582;2024-03-06T15:06:53;100757.98;;;3.76;100.00
51530;BME280;37613;51.788;21.582;2024-03-06T15:10:54;100761.05;;;3.76;100.00
51530;BME280;37613;51.788;21.582;2024-03-06T15:14:55;100764.90;;;3.77;100.00
51530;BME280;37613;51.788;21.582;2024-03-06T15:25:24;100771.39;;;3.88;100.00
51530;BME280;37613;51.788;21.582;2024-03-06T15:29:25;100774.48;;;3.87;100.00
51530;BME280;37613;51.788;21.582;2024-03-06T15:33:26;100779.45;;;3.86;100.00
51530;BME280;37613;51.788;21.582;2024-03-06T15:37:30;100779.61;;;3.84;100.00
51530;BME280;37613;51.788;21.582;2024-03-06T15:41:34;100784.27;;;3.82;100.00
51530;BME280;37613;51.788;21.582;2024-03-06T15:45:36;100787.40;;;3.82;100.00
51530;BME280;37613;51.788;21.582;2024-03-06T15:49:37;100787.80;;;3.79;100.00
51530;BME280;37613;51.788;21.582;2024-03-06T15:53:38;100790.30;;;3.77;100.00
51530;BME280;37613;51.788;21.582;2024-03-06T15:57:39;100798.45;;;3.73;100.00
51530;BME280;37613;51.788;21.582;2024-03-06T16:01:40;100798.92;;;3.71;100.00
51530;BME280;37613;51.788;21.582;2024-03-06T16:05:41;100797.52;;;3.69;100.00
51530;BME280;37613;51.788;21.582;2024-03-06T16:09:42;100802.38;;;3.67;100.00
51530;BME280;37613;51.788;21.582;2024-03-06T16:13:43;100811.70;;;3.63;100.00
51530;BME280;37613;51.788;21.582;2024-03-06T16:17:45;100811.79;;;3.59;100.00
51530;BME280;37613;51.788;21.582;2024-03-06T16:21:46;100810.39;;;3.53;99.57
51530;BME280;37613;51.788;21.582;2024-03-06T16:26:03;100814.88;;;3.50;99.94
51530;BME280;37613;51.788;21.582;2024-03-06T16:30:04;100820.31;;;3.41;99.96
51530;BME280;37613;51.788;21.582;2024-03-06T16:34:05;100817.70;;;3.33;100.00
51530;BME280;37613;51.788;21.582;2024-03-06T16:38:09;100824.17;;;3.27;99.85
51530;BME280;37613;51.788;21.582;2024-03-06T16:42:10;100828.24;;;3.20;99.40
51530;BME280;37613;51.788;21.582;2024-03-06T16:46:13;100832.27;;;3.15;99.98
51530;BME280;37613;51.788;21.582;2024-03-06T16:50:15;100837.92;;;3.09;99.86
51530;BME280;37613;51.788;21.582;2024-03-06T16:54:15;100843.27;;;3.06;100.00
51530;BME280;37613;51.788;21.582;2024-03-06T16:58:18;100845.16;;;3.03;100.00
51530;BME280;37613;51.788;21.582;2024-03-06T17:02:19;100846.60;;;3.02;100.00
51530;BME280;37613;51.788;21.582;2024-03-06T17:06:21;100849.77;;;3.01;100.00
51530;BME280;37613;51.788;21.582;2024-03-06T17:10:23;100849.70;;;2.97;100.00
51530;BME280;37613;51.788;21.582;2024-03-06T17:14:25;100853.34;;;2.93;100.00
51530;BME280;37613;51.788;21.582;2024-03-06T17:18:28;100854.88;;;2.90;100.00
51530;BME280;37613;51.788;21.582;2024-03-06T17:22:30;100857.80;;;2.89;100.00
51530;BME280;37613;51.788;21.582;2024-03-06T17:26:34;100859.16;;;2.84;100.00
51530;BME280;37613;51.788;21.582;2024-03-06T17:30:39;100859.13;;;2.77;100.00
51530;BME280;37613;51.788;21.582;2024-03-06T17:34:43;100858.28;;;2.72;100.00
51530;BME280;37613;51.788;21.582;2024-03-06T17:38:45;100861.20;;;2.67;100.00
51530;BME280;37613;51.788;21.582;2024-03-06T17:42:48;100864.11;;;2.61;100.00
51530;BME280;37613;51.788;21.582;2024-03-06T17:46:50;100866.25;;;2.54;100.00
51530;BME280;37613;51.788;21.582;2024-03-06T17:50:52;100864.14;;;2.48;100.00
51530;BME280;37613;51.788;21.582;2024-03-06T17:54:54;100868.85;;;2.42;100.00
51530;BME280;37613;51.788;21.582;2024-03-06T17:58:56;100877.23;;;2.37;100.00
51530;BME280;37613;51.788;21.582;2024-03-06T18:02:59;100882.84;;;2.35;100.00
51530;BME280;37613;51.788;21.582;2024-03-06T18:07:01;100881.84;;;2.35;100.00
51530;BME280;37613;51.788;21.582;2024-03-06T18:11:03;100884.50;;;2.37;100.00
51530;BME280;37613;51.788;21.582;2024-03-06T18:15:06;100889.66;;;2.41;100.00
51530;BME280;37613;51.788;21.582;2024-03-06T18:19:08;100894.23;;;2.46;100.00
51530;BME280;37613;51.788;21.582;2024-03-06T18:23:10;100900.77;;;2.51;100.00
51530;BME280;37613;51.788;21.582;2024-03-06T18:27:17;100903.02;;;2.54;100.00
51530;BME280;37613;51.788;21.582;2024-03-06T18:31:19;100904.66;;;2.56;100.00
51530;BME280;37613;51.788;21.582;2024-03-06T18:35:21;100907.90;;;2.64;100.00
51530;BME280;37613;51.788;21.582;2024-03-06T18:39:23;100908.64;;;2.67;100.00
51530;BME280;37613;51.788;21.582;2024-03-06T18:43:26;100908.77;;;2.66;100.00
51530;BME280;37613;51.788;21.582;2024-03-06T18:47:28;100909.73;;;2.65;100.00
51530;BME280;37613;51.788;21.582;2024-03-06T18:51:31;100910.35;;;2.65;100.00
51530;BME280;37613;51.788;21.582;2024-03-06T18:55:33;100914.43;;;2.65;100.00
51530;BME280;37613;51.788;21.582;2024-03-06T18:59:36;100917.26;;;2.66;100.00
51530;BME280;37613;51.788;21.582;2024-03-06T19:03:39;100918.39;;;2.66;100.00
51530;BME280;37613;51.788;21.582;2024-03-06T19:07:41;100917.41;;;2.67;100.00
51530;BME280;37613;51.788;21.582;2024-03-06T19:11:45;100920.98;;;2.69;100.00
51530;BME280;37613;51.788;21.582;2024-03-06T19:15:48;100922.54;;;2.71;100.00
51530;BME280;37613;51.788;21.582;2024-03-06T19:19:50;100925.44;;;2.73;100.00
51530;BME280;37613;51.788;21.582;2024-03-06T19:23:54;100926.63;;;2.74;100.00
51530;BME280;37613;51.788;21.582;2024-03-06T19:27:57;100931.70;;;2.76;100.00
51530;BME280;37613;51.788;21.582;2024-03-06T19:31:59;100932.81;;;2.77;100.00
51530;BME280;37613;51.788;21.582;2024-03-06T19:36:03;100931.55;;;2.79;100.00
51530;BME280;37613;51.788;21.582;2024-03-06T19:40:06;100936.26;;;2.81;100.00
51530;BME280;37613;51.788;21.582;2024-03-06T19:44:11;100934.90;;;2.82;100.00
51530;BME280;37613;51.788;21.582;2024-03-06T19:48:14;100934.26;;;2.82;100.00
51530;BME280;37613;51.788;21.582;2024-03-06T19:52:19;100938.80;;;2.80;99.22
51530;BME280;37613;51.788;21.582;2024-03-06T19:56:22;100938.04;;;2.79;99.71
51530;BME280;37613;51.788;21.582;2024-03-06T20:00:25;100939.79;;;2.78;99.34
51530;BME280;37613;51.788;21.582;2024-03-06T20:04:29;100944.30;;;2.77;99.81
51530;BME280;37613;51.788;21.582;2024-03-06T20:08:32;100942.34;;;2.75;99.48
51530;BME280;37613;51.788;21.582;2024-03-06T20:12:35;100946.14;;;2.73;99.47
51530;BME280;37613;51.788;21.582;2024-03-06T20:16:38;100946.58;;;2.71;99.35
51530;BME280;37613;51.788;21.582;2024-03-06T20:20:41;100948.65;;;2.70;99.30
51530;BME280;37613;51.788;21.582;2024-03-06T20:24:44;100945.21;;;2.68;99.24
51530;BME280;37613;51.788;21.582;2024-03-06T20:28:47;100946.09;;;2.66;99.32
51530;BME280;37613;51.788;21.582;2024-03-06T20:32:52;100949.54;;;2.65;98.28
51530;BME280;37613;51.788;21.582;2024-03-06T20:36:55;100950.04;;;2.62;98.21
51530;BME280;37613;51.788;21.582;2024-03-06T20:41:00;100948.55;;;2.60;98.73
51530;BME280;37613;51.788;21.582;2024-03-06T20:45:03;100951.59;;;2.57;98.77
51530;BME280;37613;51.788;21.582;2024-03-06T20:49:06;100956.70;;;2.54;98.88
51530;BME280;37613;51.788;21.582;2024-03-06T20:53:09;100956.50;;;2.51;98.86
51530;BME280;37613;51.788;21.582;2024-03-06T20:57:13;100962.57;;;2.47;98.54
51530;BME280;37613;51.788;21.582;2024-03-06T21:01:15;100961.64;;;2.42;98.15
51530;BME280;37613;51.788;21.582;2024-03-06T21:05:18;100964.83;;;2.38;98.19
51530;BME280;37613;51.788;21.582;2024-03-06T21:09:20;100968.97;;;2.35;97.52